sensor_id;sensor_type;location;lat;lon;timestamp;P1;durP1;ratioP1;P2;durP2;ratioP2
19848;SDS011;10085;51.120;6.956;2023-12-22T00:00:21;4.05;;;1.23;;
19848;SDS011;10085;51.120;6.956;2023-12-22T00:10:24;11.20;;;0.80;;
19848;SDS011;10085;51.120;6.956;2023-12-22T00:20:28;6.20;;;0.98;;
19848;SDS011;10085;51.120;6.956;2023-12-22T00:30:31;5.75;;;1.25;;
19848;SDS011;10085;51.120;6.956;2023-12-22T00:40:35;9.10;;;1.10;;
19848;SDS011;10085;51.120;6.956;2023-12-22T00:50:38;4.15;;;1.20;;
19848;SDS011;10085;51.120;6.956;2023-12-22T01:00:42;1.80;;;0.52;;
19848;SDS011;10085;51.120;6.956;2023-12-22T01:10:45;2.55;;;0.80;;
19848;SDS011;10085;51.120;6.956;2023-12-22T01:20:49;0.55;;;0.30;;
19848;SDS011;10085;51.120;6.956;2023-12-22T01:30:52;7.95;;;1.42;;
19848;SDS011;10085;51.120;6.956;2023-12-22T01:40:56;6.68;;;1.35;;
19848;SDS011;10085;51.120;6.956;2023-12-22T01:50:59;6.43;;;1.05;;
19848;SDS011;10085;51.120;6.956;2023-12-22T02:01:04;5.78;;;1.13;;
19848;SDS011;10085;51.120;6.956;2023-12-22T02:11:08;2.13;;;0.90;;
19848;SDS011;10085;51.120;6.956;2023-12-22T02:21:12;4.70;;;1.05;;
19848;SDS011;10085;51.120;6.956;2023-12-22T02:31:17;2.17;;;1.00;;
19848;SDS011;10085;51.120;6.956;2023-12-22T02:41:22;4.35;;;1.65;;
19848;SDS011;10085;51.120;6.956;2023-12-22T02:51:27;3.28;;;0.70;;
19848;SDS011;10085;51.120;6.956;2023-12-22T03:01:30;3.72;;;0.52;;
19848;SDS011;10085;51.120;6.956;2023-12-22T03:11:34;2.38;;;0.75;;
19848;SDS011;10085;51.120;6.956;2023-12-22T03:21:37;1.50;;;1.00;;
19848;SDS011;10085;51.120;6.956;2023-12-22T03:31:41;3.38;;;1.10;;
19848;SDS011;10085;51.120;6.956;2023-12-22T03:41:44;2.53;;;0.75;;
19848;SDS011;10085;51.120;6.956;2023-12-22T03:51:48;3.72;;;0.98;;
19848;SDS011;10085;51.120;6.956;2023-12-22T04:01:51;11.90;;;2.25;;
19848;SDS011;10085;51.120;6.956;2023-12-22T04:11:58;9.32;;;1.48;;
19848;SDS011;10085;51.120;6.956;2023-12-22T04:22:00;7.78;;;1.70;;
19848;SDS011;10085;51.120;6.956;2023-12-22T04:32:05;8.70;;;1.52;;
19848;SDS011;10085;51.120;6.956;2023-12-22T04:42:08;6.28;;;1.38;;
19848;SDS011;10085;51.120;6.956;2023-12-22T04:52:12;8.75;;;1.13;;
19848;SDS011;10085;51.120;6.956;2023-12-22T05:02:15;5.68;;;1.35;;
19848;SDS011;10085;51.120;6.956;2023-12-22T05:12:19;15.38;;;2.42;;
19848;SDS011;10085;51.120;6.956;2023-12-22T05:22:22;20.08;;;2.58;;
19848;SDS011;10085;51.120;6.956;2023-12-22T05:32:26;13.13;;;2.47;;
19848;SDS011;10085;51.120;6.956;2023-12-22T05:42:29;7.53;;;1.63;;
19848;SDS011;10085;51.120;6.956;2023-12-22T05:52:33;9.95;;;2.13;;
19848;SDS011;10085;51.120;6.956;2023-12-22T06:02:36;10.95;;;2.22;;
19848;SDS011;10085;51.120;6.956;2023-12-22T06:12:41;4.85;;;1.95;;
19848;SDS011;10085;51.120;6.956;2023-12-22T06:22:43;7.20;;;3.00;;
19848;SDS011;10085;51.120;6.956;2023-12-22T06:32:48;16.42;;;4.55;;
19848;SDS011;10085;51.120;6.956;2023-12-22T06:42:51;14.57;;;4.00;;
19848;SDS011;10085;51.120;6.956;2023-12-22T06:52:55;20.48;;;4.05;;
19848;SDS011;10085;51.120;6.956;2023-12-22T07:02:59;16.45;;;3.42;;
19848;SDS011;10085;51.120;6.956;2023-12-22T07:13:03;19.52;;;2.78;;
19848;SDS011;10085;51.120;6.956;2023-12-22T07:23:07;19.77;;;4.80;;
19848;SDS011;10085;51.120;6.956;2023-12-22T07:33:14;10.35;;;2.67;;
19848;SDS011;10085;51.120;6.956;2023-12-22T07:43:17;17.23;;;5.43;;
19848;SDS011;10085;51.120;6.956;2023-12-22T07:53:21;5.82;;;2.08;;
19848;SDS011;10085;51.120;6.956;2023-12-22T08:03:24;15.95;;;3.50;;
19848;SDS011;10085;51.120;6.956;2023-12-22T08:13:28;8.60;;;2.30;;
19848;SDS011;10085;51.120;6.956;2023-12-22T08:23:31;11.02;;;2.15;;
19848;SDS011;10085;51.120;6.956;2023-12-22T08:33:44;16.90;;;3.30;;
19848;SDS011;10085;51.120;6.956;2023-12-22T08:43:47;20.63;;;4.13;;
19848;SDS011;10085;51.120;6.956;2023-12-22T08:53:51;16.23;;;3.28;;
19848;SDS011;10085;51.120;6.956;2023-12-22T09:03:56;26.10;;;4.82;;
19848;SDS011;10085;51.120;6.956;2023-12-22T14:33:20;4.60;;;1.40;;
19848;SDS011;10085;51.120;6.956;2023-12-22T14:43:23;6.40;;;2.10;;
19848;SDS011;10085;51.120;6.956;2023-12-22T14:53:28;4.68;;;1.88;;
19848;SDS011;10085;51.120;6.956;2023-12-22T15:03:31;3.33;;;1.60;;
19848;SDS011;10085;51.120;6.956;2023-12-22T15:13:35;5.88;;;1.55;;
19848;SDS011;10085;51.120;6.956;2023-12-22T15:23:39;3.42;;;1.80;;
19848;SDS011;10085;51.120;6.956;2023-12-22T15:33:43;4.82;;;1.70;;
19848;SDS011;10085;51.120;6.956;2023-12-22T15:43:46;5.22;;;1.58;;
19848;SDS011;10085;51.120;6.956;2023-12-22T15:53:50;8.68;;;1.63;;
19848;SDS011;10085;51.120;6.956;2023-12-22T16:03:53;8.60;;;1.85;;
19848;SDS011;10085;51.120;6.956;2023-12-22T16:13:57;2.92;;;1.33;;
19848;SDS011;10085;51.120;6.956;2023-12-22T16:24:00;7.38;;;1.65;;
19848;SDS011;10085;51.120;6.956;2023-12-22T16:34:04;3.92;;;1.27;;
19848;SDS011;10085;51.120;6.956;2023-12-22T16:44:07;3.15;;;1.13;;
19848;SDS011;10085;51.120;6.956;2023-12-22T16:54:11;1.35;;;0.85;;
19848;SDS011;10085;51.120;6.956;2023-12-22T17:04:14;5.95;;;2.17;;
19848;SDS011;10085;51.120;6.956;2023-12-22T17:14:18;8.48;;;2.47;;
19848;SDS011;10085;51.120;6.956;2023-12-22T17:24:21;6.47;;;2.17;;
19848;SDS011;10085;51.120;6.956;2023-12-22T17:34:26;6.32;;;2.20;;
19848;SDS011;10085;51.120;6.956;2023-12-22T17:44:31;6.88;;;2.03;;
19848;SDS011;10085;51.120;6.956;2023-12-22T17:54:37;10.30;;;2.60;;
19848;SDS011;10085;51.120;6.956;2023-12-22T18:04:40;4.80;;;1.50;;
19848;SDS011;10085;51.120;6.956;2023-12-22T18:14:45;7.53;;;2.38;;
19848;SDS011;10085;51.120;6.956;2023-12-22T18:24:49;4.28;;;1.85;;
19848;SDS011;10085;51.120;6.956;2023-12-22T18:34:53;14.70;;;2.58;;
19848;SDS011;10085;51.120;6.956;2023-12-22T18:44:56;7.22;;;1.73;;
19848;SDS011;10085;51.120;6.956;2023-12-22T18:55:01;1.02;;;0.75;;
19848;SDS011;10085;51.120;6.956;2023-12-22T19:05:04;7.28;;;1.80;;
19848;SDS011;10085;51.120;6.956;2023-12-22T19:15:09;5.07;;;2.08;;
19848;SDS011;10085;51.120;6.956;2023-12-22T19:25:13;7.28;;;1.92;;
19848;SDS011;10085;51.120;6.956;2023-12-22T19:35:17;4.78;;;1.83;;
19848;SDS011;10085;51.120;6.956;2023-12-22T19:45:20;5.43;;;1.80;;
19848;SDS011;10085;51.120;6.956;2023-12-22T19:55:24;6.70;;;2.42;;
19848;SDS011;10085;51.120;6.956;2023-12-22T20:05:27;7.05;;;1.88;;
19848;SDS011;10085;51.120;6.956;2023-12-22T20:15:32;11.55;;;2.38;;
19848;SDS011;10085;51.120;6.956;2023-12-22T20:25:35;3.05;;;1.08;;
19848;SDS011;10085;51.120;6.956;2023-12-22T20:35:39;4.68;;;1.90;;
19848;SDS011;10085;51.120;6.956;2023-12-22T20:45:42;3.58;;;1.63;;
19848;SDS011;10085;51.120;6.956;2023-12-22T20:55:47;5.00;;;2.05;;
19848;SDS011;10085;51.120;6.956;2023-12-22T21:05:50;9.23;;;2.13;;
19848;SDS011;10085;51.120;6.956;2023-12-22T21:15:56;1.45;;;0.80;;
19848;SDS011;10085;51.120;6.956;2023-12-22T21:25:59;1.88;;;0.90;;
19848;SDS011;10085;51.120;6.956;2023-12-22T21:36:04;1.50;;;0.93;;
19848;SDS011;10085;51.120;6.956;2023-12-22T21:46:07;2.58;;;1.00;;
19848;SDS011;10085;51.120;6.956;2023-12-22T21:56:19;3.92;;;1.30;;
19848;SDS011;10085;51.120;6.956;2023-12-22T22:06:22;2.10;;;0.73;;
19848;SDS011;10085;51.120;6.956;2023-12-22T22:16:26;6.00;;;1.15;;
19848;SDS011;10085;51.120;6.956;2023-12-22T22:26:29;5.97;;;1.15;;
19848;SDS011;10085;51.120;6.956;2023-12-22T22:36:35;6.32;;;1.20;;
19848;SDS011;10085;51.120;6.956;2023-12-22T22:46:38;4.38;;;0.70;;
19848;SDS011;10085;51.120;6.956;2023-12-22T22:56:42;3.47;;;0.77;;
19848;SDS011;10085;51.120;6.956;2023-12-22T23:06:45;6.30;;;0.90;;
19848;SDS011;10085;51.120;6.956;2023-12-22T23:16:50;5.60;;;1.23;;
19848;SDS011;10085;51.120;6.956;2023-12-22T23:26:53;2.63;;;0.70;;
19848;SDS011;10085;51.120;6.956;2023-12-22T23:36:57;3.15;;;1.10;;
19848;SDS011;10085;51.120;6.956;2023-12-22T23:47:00;4.78;;;1.00;;
19848;SDS011;10085;51.120;6.956;2023-12-22T23:57:04;9.90;;;1.30;;
